Time;durP1;ratioP1;P1;durP2;ratioP2;P2;SDS_P1;SDS_P2;PMS_P1;PMS_P2;Temp;Humidity;BMP_temperature;BMP_pressure;BME280_temperature;BME280_humidity;BME280_pressure;Samples;Min_cycle;Max_cycle;Signal;HPM_P1;HPM_P2
2024/01/15 00:00:42;;;;;;;;;;;4.10;99.90;;;;;;5073764;28;19930;-71
2024/01/15 00:03:07;;;;;;;;;;;3.30;99.90;;;;;;5074957;28;19982;-71
2024/01/15 00:05:33;;;;;;;;;;;3.40;99.90;;;;;;5074983;28;19920;-71
2024/01/15 00:07:58;;;;;;;;;;;3.30;99.90;;;;;;5073813;28;19951;-72
2024/01/15 00:10:24;;;;;;;;;;;3.30;99.90;;;;;;5075165;28;19982;-72
2024/01/15 00:12:49;;;;;;;;;;;3.30;99.90;;;;;;5075084;28;19946;-71
2024/01/15 00:15:15;;;;;;;;;;;3.30;99.90;;;;;;5072835;28;19927;-71
2024/01/15 00:17:40;;;;;;;;;;;3.40;99.90;;;;;;5073613;28;19920;-72
2024/01/15 00:20:06;;;;;;;;;;;3.40;99.90;;;;;;5073064;28;19990;-72
2024/01/15 00:22:32;;;;;;;;;;;3.40;99.90;;;;;;5073810;28;20363;-71
2024/01/15 00:24:57;;;;;;;;;;;3.30;99.90;;;;;;5072968;28;19931;-72
2024/01/15 00:27:23;;;;;;;;;;;4.80;99.90;;;;;;5072552;28;20290;-72
2024/01/15 00:29:50;;;;;;;;;;;3.40;99.90;;;;;;5073882;28;19920;-72
2024/01/15 00:32:16;;;;;;;;;;;3.40;99.90;;;;;;5074755;28;19943;-72
2024/01/15 00:34:41;;;;;;;;;;;3.80;99.90;;;;;;5072087;28;19920;-72
2024/01/15 00:37:07;;;;;;;;;;;4.00;99.90;;;;;;5074342;28;19924;-72
2024/01/15 00:39:32;;;;;;;;;;;3.60;99.90;;;;;;5074724;28;19921;-71
2024/01/15 00:41:58;;;;;;;;;;;3.50;99.90;;;;;;5072877;28;19931;-71
2024/01/15 00:44:23;;;;;;;;;;;3.30;99.90;;;;;;5071749;28;20356;-71
2024/01/15 00:46:49;;;;;;;;;;;3.10;99.90;;;;;;5073303;28;19927;-71
2024/01/15 00:49:15;;;;;;;;;;;3.00;99.90;;;;;;5071975;28;19920;-71
2024/01/15 00:51:40;;;;;;;;;;;2.70;99.90;;;;;;5072753;28;19920;-71
2024/01/15 00:54:06;;;;;;;;;;;2.70;99.90;;;;;;5073878;28;19921;-71
2024/01/15 00:56:31;;;;;;;;;;;2.60;99.90;;;;;;5073432;28;19923;-71
2024/01/15 00:58:57;;;;;;;;;;;2.60;99.90;;;;;;5073709;28;19921;-71
2024/01/15 01:01:22;;;;;;;;;;;2.60;99.90;;;;;;5072378;28;19921;-71
2024/01/15 01:03:48;;;;;;;;;;;2.70;99.90;;;;;;5072016;28;19974;-71
2024/01/15 01:06:13;;;;;;;;;;;2.70;99.90;;;;;;5073623;28;19927;-71
2024/01/15 01:08:45;;;;;;;;;;;3.00;99.90;;;;;;5072606;28;20012;-71
2024/01/15 01:11:12;;;;;;;;;;;2.90;99.90;;;;;;5071453;28;19935;-71
2024/01/15 01:13:38;;;;;;;;;;;2.60;99.90;;;;;;5071953;28;19928;-71
2024/01/15 01:16:04;;;;;;;;;;;2.70;99.90;;;;;;5072216;28;19920;-71
2024/01/15 01:18:29;;;;;;;;;;;2.70;99.90;;;;;;5071496;28;19924;-71
2024/01/15 01:21:07;;;;;;;;;;;2.70;99.90;;;;;;5072408;28;19928;-71
2024/01/15 01:23:32;;;;;;;;;;;2.70;99.90;;;;;;5072695;28;20280;-72
2024/01/15 01:25:58;;;;;;;;;;;2.80;99.90;;;;;;5072692;28;19924;-71
2024/01/15 01:28:44;;;;;;;;;;;2.10;99.90;;;;;;5073864;28;19920;-71
2024/01/15 01:31:09;;;;;;;;;;;2.80;99.90;;;;;;5070999;28;19920;-72
2024/01/15 01:33:39;;;;;;;;;;;2.90;99.90;;;;;;5073378;28;19927;-71
2024/01/15 01:36:07;;;;;;;;;;;2.70;99.90;;;;;;5072839;28;19925;-71
2024/01/15 01:38:32;;;;;;;;;;;2.90;99.90;;;;;;5072761;28;20273;-71
2024/01/15 01:40:58;;;;;;;;;;;3.00;99.90;;;;;;5072344;28;19930;-71
2024/01/15 01:43:23;;;;;;;;;;;3.00;99.90;;;;;;5071275;28;19940;-72
2024/01/15 01:45:49;;;;;;;;;;;3.10;99.90;;;;;;5070844;28;19926;-71
2024/01/15 01:48:14;;;;;;;;;;;3.10;99.90;;;;;;5072991;28;20024;-71
2024/01/15 01:50:40;;;;;;;;;;;3.00;99.90;;;;;;5073127;28;19920;-71
2024/01/15 01:53:05;;;;;;;;;;;3.00;99.90;;;;;;5070986;28;19975;-71
2024/01/15 01:55:33;;;;;;;;;;;3.00;99.90;;;;;;5072664;28;19916;-71
2024/01/15 01:57:59;;;;;;;;;;;3.00;99.90;;;;;;5071885;28;19924;-72
2024/01/15 02:00:27;;;;;;;;;;;3.10;99.90;;;;;;5071025;28;19917;-71
2024/01/15 02:02:53;;;;;;;;;;;3.20;99.90;;;;;;5071471;28;20372;-71
2024/01/15 02:05:20;;;;;;;;;;;3.20;99.90;;;;;;5071114;28;19924;-71
2024/01/15 02:07:45;;;;;;;;;;;3.10;99.90;;;;;;5072280;28;19973;-71
2024/01/15 02:10:11;;;;;;;;;;;3.10;99.90;;;;;;5072677;28;20007;-71
2024/01/15 02:12:36;;;;;;;;;;;3.10;99.90;;;;;;5072327;28;19981;-71
2024/01/15 02:15:02;;;;;;;;;;;2.90;99.90;;;;;;5071677;28;19928;-71
2024/01/15 02:17:27;;;;;;;;;;;2.90;99.90;;;;;;5073121;28;19950;-72
2024/01/15 02:19:53;;;;;;;;;;;2.80;99.90;;;;;;5072117;28;19963;-71
2024/01/15 02:22:18;;;;;;;;;;;2.80;99.90;;;;;;5070900;28;19962;-71
2024/01/15 02:24:44;;;;;;;;;;;2.70;99.90;;;;;;5072683;28;19920;-71
2024/01/15 02:27:09;;;;;;;;;;;2.70;99.90;;;;;;5070552;28;19997;-71
2024/01/15 02:29:35;;;;;;;;;;;2.60;99.90;;;;;;5070662;28;19998;-71
2024/01/15 02:32:04;;;;;;;;;;;2.60;99.90;;;;;;5072437;28;19920;-71
2024/01/15 02:34:31;;;;;;;;;;;2.70;99.90;;;;;;5070685;28;20007;-71
2024/01/15 02:36:56;;;;;;;;;;;2.80;99.90;;;;;;5072951;28;20268;-71
2024/01/15 02:39:22;;;;;;;;;;;2.80;99.90;;;;;;5072274;28;19920;-71
2024/01/15 02:41:48;;;;;;;;;;;2.80;99.90;;;;;;5071754;28;19924;-71
2024/01/15 02:44:13;;;;;;;;;;;2.70;99.90;;;;;;5071178;28;20469;-71
2024/01/15 02:46:39;;;;;;;;;;;2.70;99.90;;;;;;5072622;28;20455;-71
2024/01/15 02:49:04;;;;;;;;;;;2.70;99.90;;;;;;5069691;28;19920;-71
2024/01/15 02:51:30;;;;;;;;;;;2.70;99.90;;;;;;5072392;28;19924;-71
2024/01/15 02:53:55;;;;;;;;;;;2.70;99.90;;;;;;5071442;28;19944;-72
2024/01/15 02:56:21;;;;;;;;;;;2.70;99.90;;;;;;5070341;28;19920;-71
2024/01/15 02:58:46;;;;;;;;;;;2.70;99.90;;;;;;5072276;28;19995;-71
2024/01/15 03:01:12;;;;;;;;;;;2.70;99.90;;;;;;5070975;28;19920;-70
2024/01/15 03:03:37;;;;;;;;;;;2.60;99.90;;;;;;5071539;28;20392;-70
2024/01/15 03:06:03;;;;;;;;;;;2.60;99.90;;;;;;5070600;28;19920;-70
2024/01/15 03:08:29;;;;;;;;;;;2.50;99.90;;;;;;5074146;28;19967;-70
2024/01/15 03:10:54;;;;;;;;;;;2.60;99.90;;;;;;5074080;28;19966;-70
2024/01/15 03:13:20;;;;;;;;;;;2.60;99.90;;;;;;5075585;28;20003;-70
2024/01/15 03:15:45;;;;;;;;;;;2.60;99.90;;;;;;5076020;28;20372;-70
2024/01/15 03:18:11;;;;;;;;;;;2.70;99.90;;;;;;5075049;28;19920;-70
2024/01/15 03:20:36;;;;;;;;;;;3.10;99.90;;;;;;5075919;28;19928;-70
2024/01/15 03:23:02;;;;;;;;;;;2.70;99.90;;;;;;5075246;28;19920;-70
2024/01/15 03:25:27;;;;;;;;;;;2.60;99.90;;;;;;5075408;28;19975;-70
2024/01/15 03:27:53;;;;;;;;;;;2.90;99.90;;;;;;5075218;28;19966;-70
2024/01/15 03:30:18;;;;;;;;;;;2.60;99.90;;;;;;5074771;28;20020;-70
2024/01/15 03:32:44;;;;;;;;;;;2.80;99.90;;;;;;5074633;28;20331;-70
2024/01/15 03:35:09;;;;;;;;;;;2.80;99.90;;;;;;5074464;28;20007;-70
2024/01/15 03:37:35;;;;;;;;;;;2.60;99.90;;;;;;5075222;28;19920;-70
2024/01/15 03:40:01;;;;;;;;;;;2.50;99.90;;;;;;5075365;28;20318;-70
2024/01/15 03:42:26;;;;;;;;;;;2.50;99.90;;;;;;5075650;28;19921;-70
2024/01/15 03:44:52;;;;;;;;;;;2.80;99.90;;;;;;5074906;28;19952;-70
2024/01/15 03:47:17;;;;;;;;;;;2.40;99.90;;;;;;5073573;28;19920;-70
2024/01/15 03:49:43;;;;;;;;;;;2.30;99.90;;;;;;5075167;28;19927;-70
2024/01/15 03:52:08;;;;;;;;;;;2.30;99.90;;;;;;5074146;28;19931;-70
2024/01/15 03:54:34;;;;;;;;;;;2.30;99.90;;;;;;5074162;28;20291;-70
2024/01/15 03:56:59;;;;;;;;;;;2.30;99.90;;;;;;5073371;28;19916;-71
2024/01/15 03:59:25;;;;;;;;;;;2.30;99.90;;;;;;5073185;28;20015;-70
2024/01/15 04:01:51;;;;;;;;;;;2.20;99.90;;;;;;5075132;28;20011;-70
2024/01/15 04:04:17;;;;;;;;;;;2.90;99.90;;;;;;5074207;28;19923;-70
2024/01/15 04:06:42;;;;;;;;;;;2.30;99.90;;;;;;5074213;28;19924;-70
2024/01/15 04:09:08;;;;;;;;;;;2.10;99.90;;;;;;5074847;28;19947;-70
2024/01/15 04:11:33;;;;;;;;;;;2.80;99.90;;;;;;5074861;28;19920;-70
2024/01/15 04:13:59;;;;;;;;;;;2.10;99.90;;;;;;5074171;28;19974;-71
2024/01/15 04:16:24;;;;;;;;;;;2.10;99.90;;;;;;5075021;28;19920;-70
2024/01/15 04:18:50;;;;;;;;;;;2.00;99.90;;;;;;5073303;28;19920;-70
2024/01/15 04:21:16;;;;;;;;;;;1.90;99.90;;;;;;5074117;28;19921;-70
2024/01/15 04:23:42;;;;;;;;;;;1.80;99.90;;;;;;5073777;28;19924;-70
2024/01/15 04:26:07;;;;;;;;;;;1.80;99.90;;;;;;5074377;28;19970;-71
2024/01/15 04:28:33;;;;;;;;;;;1.80;99.90;;;;;;5073743;28;19963;-70
2024/01/15 04:30:59;;;;;;;;;;;2.00;99.90;;;;;;5074576;28;20406;-70
2024/01/15 04:33:24;;;;;;;;;;;1.80;99.90;;;;;;5073422;28;19955;-69
2024/01/15 04:35:50;;;;;;;;;;;2.10;99.90;;;;;;5074359;28;19945;-70
2024/01/15 04:38:15;;;;;;;;;;;1.90;99.90;;;;;;5071787;28;19920;-70
2024/01/15 04:40:40;;;;;;;;;;;2.00;99.90;;;;;;5072695;28;20747;-71
2024/01/15 04:43:06;;;;;;;;;;;2.00;99.90;;;;;;5073865;28;19935;-71
2024/01/15 04:45:31;;;;;;;;;;;2.00;99.90;;;;;;5073015;28;19920;-71
2024/01/15 04:47:57;;;;;;;;;;;2.10;99.90;;;;;;5073458;28;19920;-71
2024/01/15 04:50:23;;;;;;;;;;;2.00;99.90;;;;;;5072801;28;20306;-70
2024/01/15 04:52:49;;;;;;;;;;;2.00;99.90;;;;;;5073442;28;19924;-71
2024/01/15 04:55:15;;;;;;;;;;;2.00;99.90;;;;;;5072930;28;19959;-70
2024/01/15 04:57:40;;;;;;;;;;;2.00;99.90;;;;;;5073985;28;20371;-71
2024/01/15 05:00:06;;;;;;;;;;;1.90;99.90;;;;;;5073774;28;19926;-70
2024/01/15 05:02:32;;;;;;;;;;;1.80;99.90;;;;;;5073151;28;20355;-70
2024/01/15 05:04:57;;;;;;;;;;;1.80;99.90;;;;;;5072181;28;19947;-71
2024/01/15 05:07:23;;;;;;;;;;;1.80;99.90;;;;;;5072095;28;19920;-71
2024/01/15 05:09:48;;;;;;;;;;;1.70;99.90;;;;;;5073001;28;19928;-70
2024/01/15 05:12:14;;;;;;;;;;;1.70;99.90;;;;;;5072249;28;19920;-71
2024/01/15 05:14:39;;;;;;;;;;;1.70;99.90;;;;;;5072268;28;20066;-71
2024/01/15 05:17:05;;;;;;;;;;;1.80;99.90;;;;;;5071192;28;20276;-70
2024/01/15 05:19:30;;;;;;;;;;;1.90;99.90;;;;;;5072708;28;19927;-71
2024/01/15 05:21:56;;;;;;;;;;;2.00;99.90;;;;;;5073862;28;19924;-70
2024/01/15 05:24:21;;;;;;;;;;;2.10;99.90;;;;;;5071185;28;19921;-71
2024/01/15 05:26:47;;;;;;;;;;;2.20;99.90;;;;;;5073300;28;19924;-71
2024/01/15 05:29:12;;;;;;;;;;;2.20;99.90;;;;;;5073572;28;19920;-71
2024/01/15 05:31:38;;;;;;;;;;;2.20;99.90;;;;;;5072293;28;19947;-71
2024/01/15 05:34:04;;;;;;;;;;;2.20;99.90;;;;;;5072308;28;19927;-71
2024/01/15 05:36:29;;;;;;;;;;;2.30;99.90;;;;;;5073761;28;20003;-71
2024/01/15 05:38:55;;;;;;;;;;;2.40;99.90;;;;;;5072096;28;19920;-71
2024/01/15 05:41:20;;;;;;;;;;;2.30;99.90;;;;;;5073295;28;20379;-71
2024/01/15 05:43:46;;;;;;;;;;;2.40;99.90;;;;;;5072599;28;19982;-71
2024/01/15 05:46:11;;;;;;;;;;;2.30;99.90;;;;;;5071754;28;19958;-71
2024/01/15 05:48:37;;;;;;;;;;;2.40;99.90;;;;;;5071723;28;19956;-71
2024/01/15 05:51:02;;;;;;;;;;;2.30;99.90;;;;;;5070533;28;19973;-71
2024/01/15 05:53:29;;;;;;;;;;;2.40;99.90;;;;;;5072310;28;19931;-71
2024/01/15 05:55:55;;;;;;;;;;;2.50;99.90;;;;;;5071248;28;19946;-71
2024/01/15 05:58:21;;;;;;;;;;;2.50;99.90;;;;;;5070903;28;20010;-71
2024/01/15 06:00:50;;;;;;;;;;;2.50;99.90;;;;;;5071906;28;20023;-70
2024/01/15 06:03:15;;;;;;;;;;;3.70;99.90;;;;;;5069263;28;19946;-68
2024/01/15 06:05:41;;;;;;;;;;;2.40;99.90;;;;;;5069629;28;19955;-70
2024/01/15 06:08:06;;;;;;;;;;;2.40;99.90;;;;;;5068748;28;19932;-69
2024/01/15 06:10:32;;;;;;;;;;;2.40;99.90;;;;;;5069930;28;19977;-71
2024/01/15 06:12:57;;;;;;;;;;;2.30;99.90;;;;;;5069252;28;19920;-71
2024/01/15 06:15:23;;;;;;;;;;;2.20;99.90;;;;;;5070772;28;19970;-83
2024/01/15 06:17:48;;;;;;;;;;;2.10;99.90;;;;;;5070898;28;19949;-77
2024/01/15 06:20:14;;;;;;;;;;;2.00;99.90;;;;;;5072092;28;19955;-74
2024/01/15 06:22:39;;;;;;;;;;;1.90;99.90;;;;;;5070611;28;19921;-75
2024/01/15 06:25:06;;;;;;;;;;;1.80;99.90;;;;;;5071454;28;19920;-71
2024/01/15 06:27:32;;;;;;;;;;;1.80;99.90;;;;;;5070684;28;20318;-72
2024/01/15 06:30:00;;;;;;;;;;;1.70;99.90;;;;;;5071246;28;19927;-73
2024/01/15 06:32:26;;;;;;;;;;;1.70;99.90;;;;;;5070313;28;19920;-77
2024/01/15 06:34:51;;;;;;;;;;;1.60;99.90;;;;;;5069510;28;20303;-73
2024/01/15 06:37:18;;;;;;;;;;;1.50;99.90;;;;;;5066858;28;20368;-71
2024/01/15 06:39:44;;;;;;;;;;;1.50;99.90;;;;;;5071894;28;19924;-72
2024/01/15 06:42:12;;;;;;;;;;;1.50;99.90;;;;;;5070503;28;19920;-69
2024/01/15 06:44:38;;;;;;;;;;;1.40;99.90;;;;;;5076315;28;19966;-70
2024/01/15 06:47:04;;;;;;;;;;;1.40;99.90;;;;;;5075683;28;20288;-70
2024/01/15 06:49:29;;;;;;;;;;;1.50;99.90;;;;;;5076030;28;19921;-73
2024/01/15 06:51:55;;;;;;;;;;;1.50;99.90;;;;;;5074721;28;19920;-69
2024/01/15 06:54:21;;;;;;;;;;;1.70;99.90;;;;;;5074182;28;20021;-70
2024/01/15 06:56:46;;;;;;;;;;;1.70;99.90;;;;;;5075878;28;19946;-68
2024/01/15 06:59:12;;;;;;;;;;;1.80;99.90;;;;;;5074809;28;19999;-69
2024/01/15 07:01:41;;;;;;;;;;;1.80;99.90;;;;;;5074315;28;19945;-69
2024/01/15 07:04:06;;;;;;;;;;;1.90;99.90;;;;;;5074643;28;20019;-70
2024/01/15 07:06:32;;;;;;;;;;;1.90;99.90;;;;;;5074416;28;20015;-69
2024/01/15 07:08:57;;;;;;;;;;;2.00;99.90;;;;;;5074499;28;19989;-69
2024/01/15 07:11:23;;;;;;;;;;;2.00;99.90;;;;;;5073717;28;19927;-69
2024/01/15 07:13:48;;;;;;;;;;;2.00;99.90;;;;;;5072645;28;19931;-69
2024/01/15 07:16:14;;;;;;;;;;;2.00;99.90;;;;;;5072713;28;19921;-69
2024/01/15 07:18:39;;;;;;;;;;;2.20;99.90;;;;;;5073175;28;20015;-69
2024/01/15 07:21:05;;;;;;;;;;;2.20;99.90;;;;;;5073279;28;19928;-69
2024/01/15 07:23:31;;;;;;;;;;;2.40;99.90;;;;;;5073816;28;19927;-69
2024/01/15 07:25:57;;;;;;;;;;;2.20;99.90;;;;;;5074838;28;19963;-69
2024/01/15 07:28:22;;;;;;;;;;;2.10;99.90;;;;;;5074432;28;20005;-68
2024/01/15 07:30:48;;;;;;;;;;;2.10;99.90;;;;;;5075199;28;19924;-69
2024/01/15 07:33:13;;;;;;;;;;;2.10;99.90;;;;;;5075389;28;20280;-69
2024/01/15 07:35:39;;;;;;;;;;;2.10;99.90;;;;;;5074573;28;19947;-69
2024/01/15 07:38:04;;;;;;;;;;;2.00;99.90;;;;;;5073032;28;20421;-69
2024/01/15 07:40:30;;;;;;;;;;;1.90;99.90;;;;;;5075883;28;19924;-69
2024/01/15 07:42:55;;;;;;;;;;;1.80;99.90;;;;;;5075979;28;20023;-68
2024/01/15 07:45:21;;;;;;;;;;;1.70;99.90;;;;;;5074390;28;19921;-69
2024/01/15 07:47:46;;;;;;;;;;;2.20;99.90;;;;;;5074286;28;19963;-69
2024/01/15 07:50:12;;;;;;;;;;;1.60;99.90;;;;;;5075170;28;20275;-69
2024/01/15 07:52:38;;;;;;;;;;;1.50;99.90;;;;;;5074804;28;19965;-69
2024/01/15 07:55:05;;;;;;;;;;;1.50;99.90;;;;;;5074646;28;19921;-69
2024/01/15 07:57:30;;;;;;;;;;;1.50;99.90;;;;;;5075002;28;20291;-68
2024/01/15 07:59:56;;;;;;;;;;;1.50;99.90;;;;;;5074188;28;19920;-68
2024/01/15 08:02:21;;;;;;;;;;;1.40;99.90;;;;;;5073450;28;19969;-69
2024/01/15 08:04:47;;;;;;;;;;;1.40;99.90;;;;;;5073930;28;20011;-69
2024/01/15 08:07:13;;;;;;;;;;;1.40;99.90;;;;;;5074737;28;19931;-69
2024/01/15 08:09:38;;;;;;;;;;;1.40;99.90;;;;;;5075466;28;19924;-69
2024/01/15 08:12:05;;;;;;;;;;;1.50;99.90;;;;;;5074309;28;19939;-71
2024/01/15 08:14:31;;;;;;;;;;;1.60;99.90;;;;;;5075045;28;20372;-70
2024/01/15 08:16:57;;;;;;;;;;;2.20;99.90;;;;;;5074884;28;19920;-68
2024/01/15 08:19:22;;;;;;;;;;;1.90;99.90;;;;;;5074162;28;20023;-68
2024/01/15 08:21:51;;;;;;;;;;;2.00;99.90;;;;;;5074683;28;19924;-69
2024/01/15 08:24:16;;;;;;;;;;;2.00;99.90;;;;;;5073747;28;19920;-70
2024/01/15 08:26:42;;;;;;;;;;;2.10;99.90;;;;;;5074341;28;20424;-70
2024/01/15 08:29:08;;;;;;;;;;;2.20;99.90;;;;;;5072765;28;20363;-71
2024/01/15 08:31:33;;;;;;;;;;;2.20;99.90;;;;;;5073800;28;19967;-70
2024/01/15 08:34:01;;;;;;;;;;;2.30;99.90;;;;;;5072793;28;19928;-70
2024/01/15 08:36:27;;;;;;;;;;;2.40;99.90;;;;;;5073078;28;19920;-71
2024/01/15 08:38:52;;;;;;;;;;;2.60;99.90;;;;;;5074990;28;20015;-71
2024/01/15 08:41:18;;;;;;;;;;;2.80;99.90;;;;;;5072390;28;20367;-71
2024/01/15 08:43:43;;;;;;;;;;;3.10;99.90;;;;;;5073486;28;19963;-71
2024/01/15 08:46:09;;;;;;;;;;;3.70;99.90;;;;;;5072978;28;20423;-72
2024/01/15 08:48:34;;;;;;;;;;;5.40;99.90;;;;;;5073601;28;19920;-71
2024/01/15 08:51:00;;;;;;;;;;;4.90;99.90;;;;;;5073783;28;20000;-71
2024/01/15 08:53:25;;;;;;;;;;;5.00;99.90;;;;;;5073027;28;19924;-70
2024/01/15 08:55:51;;;;;;;;;;;5.00;99.90;;;;;;5071797;28;19924;-69
2024/01/15 08:58:19;;;;;;;;;;;5.20;99.90;;;;;;5073909;28;19927;-69
2024/01/15 09:00:44;;;;;;;;;;;5.10;99.90;;;;;;5073218;28;19921;-70
2024/01/15 09:03:10;;;;;;;;;;;4.40;99.90;;;;;;5072661;28;20279;-69
2024/01/15 09:05:36;;;;;;;;;;;4.30;99.90;;;;;;5072025;28;19920;-69
2024/01/15 09:08:01;;;;;;;;;;;4.40;99.90;;;;;;5073056;28;19920;-69
2024/01/15 09:10:27;;;;;;;;;;;4.90;99.90;;;;;;5073026;28;20007;-70
2024/01/15 09:12:52;;;;;;;;;;;5.50;99.90;;;;;;5073076;28;19955;-70
2024/01/15 09:15:18;;;;;;;;;;;6.40;99.90;;;;;;5072616;28;19931;-69
2024/01/15 09:17:43;;;;;;;;;;;7.20;99.90;;;;;;5073341;28;19974;-70
2024/01/15 09:20:09;;;;;;;;;;;7.00;99.90;;;;;;5072098;28;20393;-69
2024/01/15 09:22:35;;;;;;;;;;;7.00;99.90;;;;;;5071757;28;20291;-69
2024/01/15 09:25:01;;;;;;;;;;;6.80;99.90;;;;;;5073677;28;19924;-69
2024/01/15 09:27:26;;;;;;;;;;;6.40;99.90;;;;;;5073758;28;20330;-70
2024/01/15 09:29:54;;;;;;;;;;;7.10;99.90;;;;;;5071251;28;19924;-70
2024/01/15 09:32:20;;;;;;;;;;;7.50;99.90;;;;;;5072246;28;19986;-70
2024/01/15 09:34:46;;;;;;;;;;;7.50;99.90;;;;;;5071900;28;20011;-69
2024/01/15 09:37:11;;;;;;;;;;;7.10;99.90;;;;;;5071203;28;19920;-69
2024/01/15 09:39:37;;;;;;;;;;;6.00;99.90;;;;;;5073682;28;20003;-69
2024/01/15 09:42:03;;;;;;;;;;;5.40;99.90;;;;;;5072094;28;20371;-69
2024/01/15 09:44:29;;;;;;;;;;;5.10;99.90;;;;;;5071185;28;19924;-69
2024/01/15 09:46:55;;;;;;;;;;;4.90;99.90;;;;;;5071752;28;19928;-69
2024/01/15 09:49:21;;;;;;;;;;;4.80;99.90;;;;;;5071793;28;19982;-69
2024/01/15 09:51:47;;;;;;;;;;;6.10;99.90;;;;;;5071242;28;20379;-69
2024/01/15 09:54:13;;;;;;;;;;;6.40;99.90;;;;;;5071095;28;19928;-69
2024/01/15 09:56:39;;;;;;;;;;;5.60;99.90;;;;;;5071781;28;19927;-69
2024/01/15 09:59:05;;;;;;;;;;;6.30;99.90;;;;;;5071148;28;19924;-69
2024/01/15 10:01:35;;;;;;;;;;;5.50;99.90;;;;;;5072985;28;20333;-69
2024/01/15 10:04:04;;;;;;;;;;;5.10;99.90;;;;;;5071872;28;19920;-68
2024/01/15 10:06:29;;;;;;;;;;;4.80;99.90;;;;;;5072866;28;20286;-69
2024/01/15 10:08:57;;;;;;;;;;;4.40;99.90;;;;;;5071656;28;19920;-69
2024/01/15 10:11:23;;;;;;;;;;;3.90;99.90;;;;;;5069542;28;20107;-69
2024/01/15 10:13:53;;;;;;;;;;;3.60;99.90;;;;;;5071658;28;19963;-69
2024/01/15 10:16:19;;;;;;;;;;;3.20;99.90;;;;;;5072288;28;20657;-68
2024/01/15 10:18:44;;;;;;;;;;;3.00;99.90;;;;;;5072565;28;19974;-69
2024/01/15 10:21:09;;;;;;;;;;;2.90;99.90;;;;;;5070805;28;19920;-68
2024/01/15 10:23:36;;;;;;;;;;;2.90;99.90;;;;;;5072971;28;19928;-69
2024/01/15 10:26:02;;;;;;;;;;;3.20;99.90;;;;;;5070758;28;19963;-69
2024/01/15 10:28:30;;;;;;;;;;;3.50;99.90;;;;;;5071543;28;19985;-68
2024/01/15 10:30:56;;;;;;;;;;;3.00;99.90;;;;;;5071745;28;20390;-68
2024/01/15 10:33:25;;;;;;;;;;;3.00;99.90;;;;;;5070472;28;19920;-69
2024/01/15 10:35:53;;;;;;;;;;;3.10;99.90;;;;;;5071190;28;20253;-68
2024/01/15 10:38:21;;;;;;;;;;;3.10;99.90;;;;;;5071549;28;20504;-69
2024/01/15 10:40:54;;;;;;;;;;;3.20;99.90;;;;;;5071170;28;20372;-69
2024/01/15 10:43:20;;;;;;;;;;;4.40;99.90;;;;;;5070871;28;19927;-69
2024/01/15 10:45:46;;;;;;;;;;;3.40;99.90;;;;;;5071629;28;19917;-69
2024/01/15 10:48:12;;;;;;;;;;;3.30;99.90;;;;;;5070273;28;19926;-69
2024/01/15 10:50:37;;;;;;;;;;;3.50;99.90;;;;;;5070930;28;20015;-69
2024/01/15 10:53:04;;;;;;;;;;;3.60;99.90;;;;;;5071052;28;19927;-69
2024/01/15 10:55:30;;;;;;;;;;;3.60;99.90;;;;;;5071720;28;19925;-69
2024/01/15 10:57:56;;;;;;;;;;;3.50;99.90;;;;;;5072197;28;20356;-69
2024/01/15 11:00:22;;;;;;;;;;;3.50;99.90;;;;;;5071522;28;19920;-69
2024/01/15 11:02:48;;;;;;;;;;;3.80;99.90;;;;;;5072662;28;20367;-69
2024/01/15 11:05:18;;;;;;;;;;;4.00;99.90;;;;;;5071262;28;19920;-69
2024/01/15 11:07:43;;;;;;;;;;;3.80;99.90;;;;;;5069963;28;19938;-69
2024/01/15 11:10:29;;;;;;;;;;;3.80;99.90;;;;;;5072356;28;20014;-69
2024/01/15 11:12:54;;;;;;;;;;;3.80;99.90;;;;;;5052032;28;20011;-69
2024/01/15 11:15:20;;;;;;;;;;;3.70;99.90;;;;;;5050089;28;19990;-69
2024/01/15 11:18:03;;;;;;;;;;;3.40;99.90;;;;;;5051394;28;19924;-69
2024/01/15 11:20:29;;;;;;;;;;;3.20;99.90;;;;;;5052397;28;19978;-69
2024/01/15 11:22:57;;;;;;;;;;;2.90;99.90;;;;;;5050290;28;19917;-68
2024/01/15 11:25:22;;;;;;;;;;;2.70;99.90;;;;;;5061619;28;20425;-68
2024/01/15 11:27:53;;;;;;;;;;;2.50;99.90;;;;;;5072375;28;20018;-68
2024/01/15 11:30:21;;;;;;;;;;;2.50;99.90;;;;;;5074114;28;20034;-69
2024/01/15 11:32:47;;;;;;;;;;;2.40;99.90;;;;;;5074257;28;19920;-68
2024/01/15 11:35:16;;;;;;;;;;;2.30;99.90;;;;;;5074466;28;20272;-68
2024/01/15 11:37:51;;;;;;;;;;;2.30;99.90;;;;;;5074154;28;20426;-69
2024/01/15 11:40:20;;;;;;;;;;;2.40;99.90;;;;;;5074180;28;20054;-69
2024/01/15 11:42:55;;;;;;;;;;;2.50;99.90;;;;;;5073651;28;19920;-69
2024/01/15 11:45:21;;;;;;;;;;;2.50;99.90;;;;;;5074578;28;19920;-69
2024/01/15 11:47:52;;;;;;;;;;;2.90;99.90;;;;;;5075154;28;19928;-69
2024/01/15 11:50:18;;;;;;;;;;;2.50;99.90;;;;;;5073592;28;20364;-69
2024/01/15 11:52:51;;;;;;;;;;;2.60;99.90;;;;;;5074237;28;19927;-69
2024/01/15 11:55:19;;;;;;;;;;;2.70;99.90;;;;;;5075103;28;19963;-70
2024/01/15 11:57:45;;;;;;;;;;;3.30;99.90;;;;;;5073357;28;20387;-70
2024/01/15 12:00:11;;;;;;;;;;;4.70;99.90;;;;;;5073552;28;19943;-70
2024/01/15 12:02:41;;;;;;;;;;;5.40;99.90;;;;;;5074090;28;20015;-70
2024/01/15 12:05:07;;;;;;;;;;;5.30;99.90;;;;;;5073814;28;19968;-70
2024/01/15 12:07:33;;;;;;;;;;;4.90;99.90;;;;;;5073184;28;19925;-69
2024/01/15 12:09:59;;;;;;;;;;;4.50;99.90;;;;;;5073948;28;19931;-71
2024/01/15 12:12:26;;;;;;;;;;;4.40;99.90;;;;;;5073007;28;19967;-70
2024/01/15 12:14:52;;;;;;;;;;;4.40;99.90;;;;;;5073958;28;19921;-69
2024/01/15 12:17:17;;;;;;;;;;;6.00;99.90;;;;;;5073575;28;20007;-71
2024/01/15 12:19:43;;;;;;;;;;;7.20;99.90;;;;;;5073289;28;19924;-70
2024/01/15 12:22:09;;;;;;;;;;;7.30;99.90;;;;;;5073543;28;19928;-69
2024/01/15 12:24:35;;;;;;;;;;;6.70;99.90;;;;;;5072686;28;19978;-70
2024/01/15 12:27:01;;;;;;;;;;;6.10;99.90;;;;;;5073296;28;19967;-72
2024/01/15 12:29:27;;;;;;;;;;;5.90;99.90;;;;;;5070648;28;19967;-70
2024/01/15 12:31:53;;;;;;;;;;;6.50;99.90;;;;;;5059850;28;20756;-70
2024/01/15 12:34:18;;;;;;;;;;;5.80;99.90;;;;;;5056022;28;19928;-70
2024/01/15 12:36:48;;;;;;;;;;;5.50;99.90;;;;;;5074328;28;19920;-69
2024/01/15 12:39:13;;;;;;;;;;;5.20;99.90;;;;;;5073119;28;19920;-69
2024/01/15 12:41:40;;;;;;;;;;;4.90;99.90;;;;;;5073386;28;19927;-69
2024/01/15 12:44:06;;;;;;;;;;;4.60;99.90;;;;;;5073747;28;19920;-68
2024/01/15 12:46:32;;;;;;;;;;;4.50;99.90;;;;;;5072418;28;19928;-68
2024/01/15 12:48:57;;;;;;;;;;;4.30;99.90;;;;;;5073075;28;19927;-69
2024/01/15 12:51:26;;;;;;;;;;;4.20;99.90;;;;;;5072798;28;19920;-69
2024/01/15 12:53:53;;;;;;;;;;;4.00;99.90;;;;;;5070506;28;19935;-74
2024/01/15 12:56:18;;;;;;;;;;;5.50;99.90;;;;;;5076238;28;19992;-76
2024/01/15 12:58:44;;;;;;;;;;;6.30;99.90;;;;;;5079836;28;19969;-70
2024/01/15 13:01:10;;;;;;;;;;;7.60;99.90;;;;;;5076205;28;19934;-69
2024/01/15 13:03:35;;;;;;;;;;;8.60;99.90;;;;;;5072555;28;20016;-72
2024/01/15 13:06:01;;;;;;;;;;;9.10;99.90;;;;;;5072081;28;20007;-71
2024/01/15 13:08:29;;;;;;;;;;;9.30;99.90;;;;;;5071244;28;19920;-70
2024/01/15 13:10:56;;;;;;;;;;;8.90;99.90;;;;;;5072039;28;19932;-69
2024/01/15 13:13:22;;;;;;;;;;;8.10;99.90;;;;;;5070096;28;19936;-70
2024/01/15 13:15:48;;;;;;;;;;;7.30;99.90;;;;;;5069565;28;19927;-70
2024/01/15 13:18:13;;;;;;;;;;;6.70;99.90;;;;;;5070234;28;19920;-69
2024/01/15 13:20:39;;;;;;;;;;;6.00;99.90;;;;;;5071559;28;19928;-70
2024/01/15 13:23:04;;;;;;;;;;;5.70;99.90;;;;;;5069622;28;19959;-71
2024/01/15 13:25:35;;;;;;;;;;;5.40;99.90;;;;;;5070051;28;20386;-71
2024/01/15 13:28:02;;;;;;;;;;;6.20;99.90;;;;;;5065152;28;20062;-72
2024/01/15 13:30:27;;;;;;;;;;;5.10;99.90;;;;;;5070017;28;20367;-72
2024/01/15 13:32:54;;;;;;;;;;;4.90;99.90;;;;;;5071391;28;19925;-71
2024/01/15 13:35:19;;;;;;;;;;;4.80;99.90;;;;;;5070631;28;19936;-71
2024/01/15 13:37:45;;;;;;;;;;;4.60;99.90;;;;;;5067420;28;19924;-71
2024/01/15 13:40:16;;;;;;;;;;;4.30;99.90;;;;;;5069972;28;19965;-73
2024/01/15 13:42:41;;;;;;;;;;;4.20;99.90;;;;;;5068851;28;20010;-72
2024/01/15 13:45:07;;;;;;;;;;;4.10;99.90;;;;;;5069953;28;20007;-71
2024/01/15 13:47:33;;;;;;;;;;;4.10;99.90;;;;;;5069717;28;20395;-72
2024/01/15 13:49:58;;;;;;;;;;;4.30;99.90;;;;;;5068175;28;20631;-73
2024/01/15 13:52:24;;;;;;;;;;;4.60;99.90;;;;;;5068255;28;19921;-72
2024/01/15 13:54:49;;;;;;;;;;;4.90;99.90;;;;;;5069174;28;19931;-71
2024/01/15 13:57:15;;;;;;;;;;;4.90;99.90;;;;;;5068468;28;19924;-71
2024/01/15 13:59:41;;;;;;;;;;;5.10;99.90;;;;;;5069523;28;19967;-71
2024/01/15 14:02:06;;;;;;;;;;;4.90;99.90;;;;;;5069530;28;19921;-72
2024/01/15 14:04:32;;;;;;;;;;;4.90;99.90;;;;;;5069148;28;20382;-72
2024/01/15 14:06:57;;;;;;;;;;;4.90;99.90;;;;;;5069508;28;19926;-72
2024/01/15 14:09:23;;;;;;;;;;;4.80;99.90;;;;;;5069463;28;19920;-71
2024/01/15 14:11:48;;;;;;;;;;;4.60;99.90;;;;;;5068907;28;20285;-72
2024/01/15 14:14:14;;;;;;;;;;;4.40;99.90;;;;;;5070046;28;20406;-72
2024/01/15 14:16:39;;;;;;;;;;;4.20;99.90;;;;;;5072115;28;19920;-71
2024/01/15 14:19:06;;;;;;;;;;;4.10;99.90;;;;;;5070324;28;19967;-71
2024/01/15 14:21:32;;;;;;;;;;;3.90;99.90;;;;;;5070855;28;19920;-72
2024/01/15 14:23:57;;;;;;;;;;;3.60;99.90;;;;;;5070728;28;19926;-72